sensor_id;sensor_type;location;lat;lon;timestamp;pressure;altitude;pressure_sealevel;temperature;humidity
58373;BME280;44177;43.356;27.672;2023-02-19T00:01:38;98105.69;;;7.48;68.94
58373;BME280;44177;43.356;27.672;2023-02-19T00:04:13;98089.41;;;7.48;68.97
58373;BME280;44177;43.356;27.672;2023-02-19T00:06:39;98082.88;;;7.49;69.08
58373;BME280;44177;43.356;27.672;2023-02-19T00:09:05;98077.44;;;7.49;68.72
58373;BME280;44177;43.356;27.672;2023-02-19T00:11:32;98072.00;;;7.49;68.88
58373;BME280;44177;43.356;27.672;2023-02-19T00:13:59;98072.78;;;7.50;68.77
58373;BME280;44177;43.356;27.672;2023-02-19T00:18:56;98079.03;;;7.50;68.72
58373;BME280;44177;43.356;27.672;2023-02-19T00:21:22;98062.41;;;7.52;68.83
58373;BME280;44177;43.356;27.672;2023-02-19T00:23:50;98067.06;;;7.51;68.72
58373;BME280;44177;43.356;27.672;2023-02-19T00:26:16;98063.22;;;7.52;68.84
58373;BME280;44177;43.356;27.672;2023-02-19T00:28:42;98048.84;;;7.52;68.80
58373;BME280;44177;43.356;27.672;2023-02-19T00:31:14;98043.75;;;7.50;68.91
58373;BME280;44177;43.356;27.672;2023-02-19T00:33:41;98031.44;;;7.53;69.07
58373;BME280;44177;43.356;27.672;2023-02-19T00:36:06;98030.66;;;7.52;68.92
58373;BME280;44177;43.356;27.672;2023-02-19T00:38:35;98036.06;;;7.52;68.83
58373;BME280;44177;43.356;27.672;2023-02-19T00:41:01;98034.13;;;7.53;69.06
58373;BME280;44177;43.356;27.672;2023-02-19T00:46:12;98012.44;;;7.53;69.21
58373;BME280;44177;43.356;27.672;2023-02-19T00:48:37;98013.25;;;7.53;69.04
58373;BME280;44177;43.356;27.672;2023-02-19T00:51:03;98008.59;;;7.54;68.99
58373;BME280;44177;43.356;27.672;2023-02-19T00:53:28;98003.94;;;7.54;68.83
58373;BME280;44177;43.356;27.672;2023-02-19T00:55:54;98008.25;;;7.55;69.04
58373;BME280;44177;43.356;27.672;2023-02-19T00:58:19;98003.63;;;7.56;68.97
58373;BME280;44177;43.356;27.672;2023-02-19T01:00:45;98005.53;;;7.55;68.83
58373;BME280;44177;43.356;27.672;2023-02-19T01:03:11;97990.06;;;7.56;68.95
58373;BME280;44177;43.356;27.672;2023-02-19T01:05:37;97996.28;;;7.56;68.98
58373;BME280;44177;43.356;27.672;2023-02-19T01:08:03;97985.41;;;7.56;68.79
58373;BME280;44177;43.356;27.672;2023-02-19T01:10:28;97976.16;;;7.57;69.25
58373;BME280;44177;43.356;27.672;2023-02-19T01:12:53;97970.72;;;7.57;69.21
58373;BME280;44177;43.356;27.672;2023-02-19T01:15:19;97964.50;;;7.57;68.88
58373;BME280;44177;43.356;27.672;2023-02-19T01:17:44;97968.47;;;7.59;69.15
58373;BME280;44177;43.356;27.672;2023-02-19T01:20:10;97962.22;;;7.59;69.11
58373;BME280;44177;43.356;27.672;2023-02-19T01:22:35;97976.94;;;7.58;68.96
58373;BME280;44177;43.356;27.672;2023-02-19T01:25:01;97984.75;;;7.59;69.08
58373;BME280;44177;43.356;27.672;2023-02-19T01:27:26;97969.59;;;7.58;69.25
58373;BME280;44177;43.356;27.672;2023-02-19T01:29:52;97973.91;;;7.59;69.15
58373;BME280;44177;43.356;27.672;2023-02-19T01:32:17;97975.03;;;7.58;69.31
58373;BME280;44177;43.356;27.672;2023-02-19T01:34:43;97970.06;;;7.61;68.96
58373;BME280;44177;43.356;27.672;2023-02-19T01:37:08;97961.91;;;7.61;69.23
58373;BME280;44177;43.356;27.672;2023-02-19T01:39:37;97966.53;;;7.60;68.88
58373;BME280;44177;43.356;27.672;2023-02-19T01:42:04;97971.63;;;7.62;69.07
58373;BME280;44177;43.356;27.672;2023-02-19T01:46:55;97957.75;;;7.63;69.05
58373;BME280;44177;43.356;27.672;2023-02-19T01:49:31;97953.44;;;7.62;68.99
58373;BME280;44177;43.356;27.672;2023-02-19T01:52:13;97960.78;;;7.62;69.24
58373;BME280;44177;43.356;27.672;2023-02-19T01:54:41;97956.16;;;7.62;69.17
58373;BME280;44177;43.356;27.672;2023-02-19T01:57:13;97961.59;;;7.62;69.03
58373;BME280;44177;43.356;27.672;2023-02-19T01:59:41;97951.50;;;7.63;69.14
58373;BME280;44177;43.356;27.672;2023-02-19T02:02:07;97942.78;;;7.57;69.11
58373;BME280;44177;43.356;27.672;2023-02-19T02:04:33;97942.22;;;7.64;69.01
58373;BME280;44177;43.356;27.672;2023-02-19T02:07:01;97939.72;;;7.58;69.12
58373;BME280;44177;43.356;27.672;2023-02-19T02:09:29;97938.13;;;7.57;69.17
58373;BME280;44177;43.356;27.672;2023-02-19T02:12:14;97956.28;;;7.66;69.16
58373;BME280;44177;43.356;27.672;2023-02-19T02:14:45;97943.69;;;7.61;69.09
58373;BME280;44177;43.356;27.672;2023-02-19T02:17:39;97945.41;;;7.66;69.12
58373;BME280;44177;43.356;27.672;2023-02-19T02:22:51;97956.28;;;7.66;69.07
58373;BME280;44177;43.356;27.672;2023-02-19T02:30:57;97957.88;;;7.67;69.10
58373;BME280;44177;43.356;27.672;2023-02-19T02:33:26;97957.88;;;7.67;69.18
58373;BME280;44177;43.356;27.672;2023-02-19T02:35:58;97950.72;;;7.62;69.12
58373;BME280;44177;43.356;27.672;2023-02-19T02:38:28;97957.06;;;7.66;69.27
58373;BME280;44177;43.356;27.672;2023-02-19T02:40:55;97962.97;;;7.68;69.17
58373;BME280;44177;43.356;27.672;2023-02-19T02:43:22;97954.81;;;7.68;68.98
58373;BME280;44177;43.356;27.672;2023-02-19T02:45:48;97955.63;;;7.69;69.15
58373;BME280;44177;43.356;27.672;2023-02-19T02:50:45;97957.53;;;7.68;69.14
58373;BME280;44177;43.356;27.672;2023-02-19T02:53:24;97955.63;;;7.69;69.17
58373;BME280;44177;43.356;27.672;2023-02-19T02:56:12;97968.03;;;7.70;69.21
58373;BME280;44177;43.356;27.672;2023-02-19T02:58:40;97973.47;;;7.70;69.24
58373;BME280;44177;43.356;27.672;2023-02-19T03:01:09;97975.06;;;7.71;69.27
58373;BME280;44177;43.356;27.672;2023-02-19T03:04:03;97971.22;;;7.72;69.11
58373;BME280;44177;43.356;27.672;2023-02-19T03:06:30;97975.06;;;7.71;69.17
58373;BME280;44177;43.356;27.672;2023-02-19T03:09:10;97967.72;;;7.71;69.24
58373;BME280;44177;43.356;27.672;2023-02-19T03:11:39;97966.16;;;7.70;69.21
58373;BME280;44177;43.356;27.672;2023-02-19T03:14:40;97971.56;;;7.70;69.08
58373;BME280;44177;43.356;27.672;2023-02-19T03:17:34;97977.78;;;7.71;69.25
58373;BME280;44177;43.356;27.672;2023-02-19T03:20:38;97976.19;;;7.70;69.26
58373;BME280;44177;43.356;27.672;2023-02-19T03:23:07;97988.66;;;7.71;69.25
58373;BME280;44177;43.356;27.672;2023-02-19T03:25:34;97994.53;;;7.73;69.20
58373;BME280;44177;43.356;27.672;2023-02-19T03:28:22;97981.06;;;7.64;69.05
58373;BME280;44177;43.356;27.672;2023-02-19T03:31:15;97999.19;;;7.72;69.12
58373;BME280;44177;43.356;27.672;2023-02-19T03:33:44;97994.53;;;7.73;69.10
58373;BME280;44177;43.356;27.672;2023-02-19T03:36:12;97992.63;;;7.73;69.11
58373;BME280;44177;43.356;27.672;2023-02-19T03:38:48;97985.28;;;7.74;69.18
58373;BME280;44177;43.356;27.672;2023-02-19T03:46:11;97981.44;;;7.75;69.37
58373;BME280;44177;43.356;27.672;2023-02-19T03:48:47;97977.59;;;7.76;69.08
58373;BME280;44177;43.356;27.672;2023-02-19T03:57:22;97969.47;;;7.76;69.11
58373;BME280;44177;43.356;27.672;2023-02-19T03:59:53;97973.75;;;7.77;69.16
58373;BME280;44177;43.356;27.672;2023-02-19T04:02:28;97972.16;;;7.76;69.29
58373;BME280;44177;43.356;27.672;2023-02-19T04:07:31;97983.47;;;7.78;69.14
58373;BME280;44177;43.356;27.672;2023-02-19T04:09:59;97997.03;;;7.78;69.14
58373;BME280;44177;43.356;27.672;2023-02-19T04:12:25;98009.50;;;7.79;69.04
58373;BME280;44177;43.356;27.672;2023-02-19T04:14:58;98010.31;;;7.80;69.29
58373;BME280;44177;43.356;27.672;2023-02-19T04:17:30;98007.59;;;7.80;69.26
58373;BME280;44177;43.356;27.672;2023-02-19T04:19:59;98002.94;;;7.80;69.22
58373;BME280;44177;43.356;27.672;2023-02-19T04:22:26;98011.09;;;7.80;69.12
58373;BME280;44177;43.356;27.672;2023-02-19T04:24:52;98012.22;;;7.79;69.11
58373;BME280;44177;43.356;27.672;2023-02-19T04:27:20;98005.31;;;7.82;69.46
58373;BME280;44177;43.356;27.672;2023-02-19T04:29:45;97999.88;;;7.82;69.10
58373;BME280;44177;43.356;27.672;2023-02-19T04:32:11;98002.59;;;7.82;69.19
58373;BME280;44177;43.356;27.672;2023-02-19T04:34:37;98010.44;;;7.83;69.06
58373;BME280;44177;43.356;27.672;2023-02-19T04:37:03;98008.84;;;7.82;69.10
58373;BME280;44177;43.356;27.672;2023-02-19T04:39:28;98011.56;;;7.82;68.96
58373;BME280;44177;43.356;27.672;2023-02-19T04:41:54;97998.78;;;7.83;69.33
58373;BME280;44177;43.356;27.672;2023-02-19T04:44:19;98001.47;;;7.83;69.06
58373;BME280;44177;43.356;27.672;2023-02-19T04:46:45;97995.16;;;7.79;68.94
58373;BME280;44177;43.356;27.672;2023-02-19T04:49:10;98000.38;;;7.84;69.06
58373;BME280;44177;43.356;27.672;2023-02-19T04:51:37;98001.47;;;7.83;69.24
58373;BME280;44177;43.356;27.672;2023-02-19T04:54:03;98000.69;;;7.82;69.14
58373;BME280;44177;43.356;27.672;2023-02-19T04:56:28;98006.59;;;7.84;69.31
58373;BME280;44177;43.356;27.672;2023-02-19T04:58:54;97998.47;;;7.84;69.25
58373;BME280;44177;43.356;27.672;2023-02-19T05:01:20;98010.09;;;7.85;69.02
58373;BME280;44177;43.356;27.672;2023-02-19T05:03:45;98018.25;;;7.85;69.25
58373;BME280;44177;43.356;27.672;2023-02-19T05:06:11;98031.47;;;7.86;69.08
58373;BME280;44177;43.356;27.672;2023-02-19T05:08:38;98038.84;;;7.86;69.00
58373;BME280;44177;43.356;27.672;2023-02-19T05:11:05;98046.19;;;7.85;69.17
58373;BME280;44177;43.356;27.672;2023-02-19T05:13:31;98049.38;;;7.87;68.94
58373;BME280;44177;43.356;27.672;2023-02-19T05:16:01;98060.25;;;7.87;69.12
58373;BME280;44177;43.356;27.672;2023-02-19T05:18:27;98065.66;;;7.87;68.76
58373;BME280;44177;43.356;27.672;2023-02-19T05:20:52;98071.09;;;7.87;69.02
58373;BME280;44177;43.356;27.672;2023-02-19T05:23:19;98071.91;;;7.88;69.19
58373;BME280;44177;43.356;27.672;2023-02-19T05:25:45;98073.50;;;7.89;69.02
58373;BME280;44177;43.356;27.672;2023-02-19T05:28:11;98058.78;;;7.90;69.13
58373;BME280;44177;43.356;27.672;2023-02-19T05:30:50;98058.00;;;7.89;68.97
58373;BME280;44177;43.356;27.672;2023-02-19T05:33:17;98062.66;;;7.89;69.09
58373;BME280;44177;43.356;27.672;2023-02-19T05:35:54;98063.44;;;7.89;69.04
58373;BME280;44177;43.356;27.672;2023-02-19T05:38:20;98073.50;;;7.89;68.85
58373;BME280;44177;43.356;27.672;2023-02-19T05:40:46;98092.97;;;7.91;68.97
58373;BME280;44177;43.356;27.672;2023-02-19T05:43:12;98096.03;;;7.89;68.92
58373;BME280;44177;43.356;27.672;2023-02-19T05:45:38;98109.59;;;7.89;69.18
58373;BME280;44177;43.356;27.672;2023-02-19T05:48:05;98124.78;;;7.90;69.16
58373;BME280;44177;43.356;27.672;2023-02-19T05:50:32;98131.81;;;7.92;69.12
58373;BME280;44177;43.356;27.672;2023-02-19T05:53:00;98144.25;;;7.93;68.90
58373;BME280;44177;43.356;27.672;2023-02-19T05:55:26;98147.75;;;7.93;69.01
58373;BME280;44177;43.356;27.672;2023-02-19T05:57:52;98157.50;;;7.94;68.77
58373;BME280;44177;43.356;27.672;2023-02-19T06:00:18;98159.88;;;7.96;68.88
58373;BME280;44177;43.356;27.672;2023-02-19T06:02:43;98168.03;;;7.96;69.01
58373;BME280;44177;43.356;27.672;2023-02-19T06:05:09;98152.72;;;7.91;68.79
58373;BME280;44177;43.356;27.672;2023-02-19T06:07:35;98161.47;;;7.97;68.90
58373;BME280;44177;43.356;27.672;2023-02-19T06:10:06;98151.41;;;7.97;68.90
58373;BME280;44177;43.356;27.672;2023-02-19T06:12:32;98145.97;;;7.97;68.82
58373;BME280;44177;43.356;27.672;2023-02-19T06:14:57;98153.81;;;7.99;68.85
58373;BME280;44177;43.356;27.672;2023-02-19T06:17:23;98157.63;;;7.98;68.96
58373;BME280;44177;43.356;27.672;2023-02-19T06:19:48;98171.69;;;8.00;68.77
58373;BME280;44177;43.356;27.672;2023-02-19T06:22:15;98171.69;;;8.00;68.83
58373;BME280;44177;43.356;27.672;2023-02-19T06:24:40;98174.84;;;8.02;68.71
58373;BME280;44177;43.356;27.672;2023-02-19T06:27:06;98171.03;;;8.03;68.77
58373;BME280;44177;43.356;27.672;2023-02-19T06:29:33;98168.78;;;8.05;68.58
58373;BME280;44177;43.356;27.672;2023-02-19T06:31:59;98165.59;;;8.03;68.54
58373;BME280;44177;43.356;27.672;2023-02-19T06:34:25;98162.69;;;8.08;68.62
58373;BME280;44177;43.356;27.672;2023-02-19T06:36:51;98165.84;;;8.10;68.51
58373;BME280;44177;43.356;27.672;2023-02-19T06:39:16;98164.72;;;8.11;68.57
58373;BME280;44177;43.356;27.672;2023-02-19T06:41:42;98169.03;;;8.12;68.59
58373;BME280;44177;43.356;27.672;2023-02-19T06:44:08;98181.50;;;8.13;68.41
58373;BME280;44177;43.356;27.672;2023-02-19T06:46:33;98193.16;;;8.14;68.63
58373;BME280;44177;43.356;27.672;2023-02-19T06:48:59;98203.25;;;8.13;68.57
58373;BME280;44177;43.356;27.672;2023-02-19T06:51:25;98215.72;;;8.14;68.64
58373;BME280;44177;43.356;27.672;2023-02-19T06:53:53;98211.06;;;8.15;68.59
58373;BME280;44177;43.356;27.672;2023-02-19T06:58:57;98217.31;;;8.15;68.56
58373;BME280;44177;43.356;27.672;2023-02-19T07:01:27;98216.50;;;8.15;68.62
58373;BME280;44177;43.356;27.672;2023-02-19T07:03:53;98209.94;;;8.16;68.46
58373;BME280;44177;43.356;27.672;2023-02-19T07:06:21;98197.16;;;8.16;68.61
58373;BME280;44177;43.356;27.672;2023-02-19T07:08:48;98204.38;;;8.12;68.39
58373;BME280;44177;43.356;27.672;2023-02-19T07:11:14;98193.16;;;8.14;68.65
58373;BME280;44177;43.356;27.672;2023-02-19T07:13:39;98215.84;;;8.18;68.59
58373;BME280;44177;43.356;27.672;2023-02-19T07:16:07;98225.91;;;8.17;68.68
58373;BME280;44177;43.356;27.672;2023-02-19T07:18:33;98223.66;;;8.19;68.45
58373;BME280;44177;43.356;27.672;2023-02-19T07:21:08;98214.59;;;8.15;68.43
58373;BME280;44177;43.356;27.672;2023-02-19T07:23:34;98226.84;;;8.21;68.32
58373;BME280;44177;43.356;27.672;2023-02-19T07:26:00;98225.72;;;8.22;68.54
58373;BME280;44177;43.356;27.672;2023-02-19T07:28:25;98221.06;;;8.23;68.35
58373;BME280;44177;43.356;27.672;2023-02-19T07:30:51;98214.84;;;8.22;68.31
58373;BME280;44177;43.356;27.672;2023-02-19T07:33:16;98218.34;;;8.23;68.30
58373;BME280;44177;43.356;27.672;2023-02-19T07:35:48;98211.00;;;8.24;68.41
58373;BME280;44177;43.356;27.672;2023-02-19T07:38:15;98209.09;;;8.24;68.40
58373;BME280;44177;43.356;27.672;2023-02-19T07:40:41;98216.13;;;8.25;68.44
58373;BME280;44177;43.356;27.672;2023-02-19T07:43:07;98214.19;;;8.26;68.58
58373;BME280;44177;43.356;27.672;2023-02-19T07:45:32;98225.03;;;8.26;68.73
58373;BME280;44177;43.356;27.672;2023-02-19T07:47:57;98226.66;;;8.27;68.84
58373;BME280;44177;43.356;27.672;2023-02-19T07:50:23;98230.97;;;8.28;68.93
58373;BME280;44177;43.356;27.672;2023-02-19T07:52:48;98214.66;;;8.28;68.53
58373;BME280;44177;43.356;27.672;2023-02-19T07:55:14;98212.41;;;8.30;68.72
58373;BME280;44177;43.356;27.672;2023-02-19T07:57:39;98219.44;;;8.31;68.93
58373;BME280;44177;43.356;27.672;2023-02-19T08:00:05;98215.59;;;8.32;68.83
58373;BME280;44177;43.356;27.672;2023-02-19T08:02:30;98223.41;;;8.33;68.72
58373;BME280;44177;43.356;27.672;2023-02-19T08:05:15;98234.75;;;8.35;68.70
58373;BME280;44177;43.356;27.672;2023-02-19T08:07:40;98228.19;;;8.36;68.85
58373;BME280;44177;43.356;27.672;2023-02-19T08:10:06;98223.19;;;8.38;68.71
58373;BME280;44177;43.356;27.672;2023-02-19T08:12:58;98235.34;;;8.41;68.78
58373;BME280;44177;43.356;27.672;2023-02-19T08:15:43;98235.47;;;8.45;68.78
58373;BME280;44177;43.356;27.672;2023-02-19T08:18:09;98232.75;;;8.45;68.63
58373;BME280;44177;43.356;27.672;2023-02-19T08:20:35;98235.63;;;8.48;68.58
58373;BME280;44177;43.356;27.672;2023-02-19T08:23:00;98233.25;;;8.47;68.45
58373;BME280;44177;43.356;27.672;2023-02-19T08:25:26;98236.56;;;8.52;68.37
58373;BME280;44177;43.356;27.672;2023-02-19T08:27:52;98244.38;;;8.54;68.53
58373;BME280;44177;43.356;27.672;2023-02-19T08:30:17;98225.69;;;8.52;68.44
58373;BME280;44177;43.356;27.672;2023-02-19T08:32:43;98226.59;;;8.57;68.45
58373;BME280;44177;43.356;27.672;2023-02-19T08:35:08;98227.56;;;8.61;68.19
58373;BME280;44177;43.356;27.672;2023-02-19T08:37:34;98219.06;;;8.62;68.25
58373;BME280;44177;43.356;27.672;2023-02-19T08:39:59;98229.28;;;8.65;68.12
58373;BME280;44177;43.356;27.672;2023-02-19T08:42:24;98230.88;;;8.66;67.86
58373;BME280;44177;43.356;27.672;2023-02-19T08:44:50;98218.53;;;8.69;67.99
58373;BME280;44177;43.356;27.672;2023-02-19T08:47:15;98203.13;;;8.73;67.85
58373;BME280;44177;43.356;27.672;2023-02-19T08:49:41;98197.03;;;8.76;67.82
58373;BME280;44177;43.356;27.672;2023-02-19T08:52:06;98196.38;;;8.79;67.60
58373;BME280;44177;43.356;27.672;2023-02-19T08:54:32;98188.63;;;8.81;67.49
58373;BME280;44177;43.356;27.672;2023-02-19T08:56:57;98191.50;;;8.85;67.32
58373;BME280;44177;43.356;27.672;2023-02-19T08:59:22;98181.88;;;8.88;67.23
58373;BME280;44177;43.356;27.672;2023-02-19T09:01:48;98189.00;;;8.92;67.38
58373;BME280;44177;43.356;27.672;2023-02-19T09:04:13;98193.00;;;8.95;67.16
58373;BME280;44177;43.356;27.672;2023-02-19T09:06:39;98193.13;;;8.98;66.83
58373;BME280;44177;43.356;27.672;2023-02-19T09:09:04;98192.13;;;9.03;66.72
58373;BME280;44177;43.356;27.672;2023-02-19T09:11:30;98189.84;;;9.05;66.83
58373;BME280;44177;43.356;27.672;2023-02-19T09:13:55;98198.47;;;9.07;66.42
58373;BME280;44177;43.356;27.672;2023-02-19T09:16:21;98189.66;;;9.10;66.73
58373;BME280;44177;43.356;27.672;2023-02-19T09:18:47;98197.13;;;9.13;66.23
58373;BME280;44177;43.356;27.672;2023-02-19T09:21:12;98194.53;;;9.17;66.29
58373;BME280;44177;43.356;27.672;2023-02-19T09:23:38;98185.69;;;9.20;66.31
58373;BME280;44177;43.356;27.672;2023-02-19T09:26:04;98194.31;;;9.22;65.99
58373;BME280;44177;43.356;27.672;2023-02-19T09:28:31;98191.72;;;9.26;66.00
58373;BME280;44177;43.356;27.672;2023-02-19T09:31:06;98184.00;;;9.28;65.78
58373;BME280;44177;43.356;27.672;2023-02-19T09:33:31;98180.03;;;9.25;65.88
58373;BME280;44177;43.356;27.672;2023-02-19T09:36:00;98181.06;;;9.33;65.97
58373;BME280;44177;43.356;27.672;2023-02-19T09:38:26;98180.38;;;9.36;65.68
58373;BME280;44177;43.356;27.672;2023-02-19T09:40:54;98151.91;;;9.33;65.81
58373;BME280;44177;43.356;27.672;2023-02-19T09:43:22;98175.03;;;9.40;65.82
58373;BME280;44177;43.356;27.672;2023-02-19T09:46:02;98177.44;;;9.41;65.75
58373;BME280;44177;43.356;27.672;2023-02-19T09:48:28;98179.81;;;9.43;65.75
58373;BME280;44177;43.356;27.672;2023-02-19T09:50:55;98171.78;;;9.46;65.50
58373;BME280;44177;43.356;27.672;2023-02-19T09:53:27;98177.69;;;9.48;65.70
58373;BME280;44177;43.356;27.672;2023-02-19T09:55:54;98170.75;;;9.51;65.55
58373;BME280;44177;43.356;27.672;2023-02-19T09:58:31;98167.69;;;9.53;65.44
58373;BME280;44177;43.356;27.672;2023-02-19T10:01:00;98176.31;;;9.55;65.41
58373;BME280;44177;43.356;27.672;2023-02-19T10:03:30;98175.66;;;9.58;65.40
58373;BME280;44177;43.356;27.672;2023-02-19T10:06:06;98179.63;;;9.60;65.30
58373;BME280;44177;43.356;27.672;2023-02-19T10:08:33;98172.69;;;9.63;65.24
58373;BME280;44177;43.356;27.672;2023-02-19T10:11:01;98164.16;;;9.64;64.82
58373;BME280;44177;43.356;27.672;2023-02-19T10:13:36;98165.88;;;9.69;64.89
58373;BME280;44177;43.356;27.672;2023-02-19T10:16:06;98159.63;;;9.69;65.10
58373;BME280;44177;43.356;27.672;2023-02-19T10:18:39;98154.31;;;9.72;64.86
58373;BME280;44177;43.356;27.672;2023-02-19T10:21:08;98152.72;;;9.71;64.76
58373;BME280;44177;43.356;27.672;2023-02-19T10:23:34;98156.69;;;9.74;64.65
58373;BME280;44177;43.356;27.672;2023-02-19T10:26:00;98136.00;;;9.73;64.66
58373;BME280;44177;43.356;27.672;2023-02-19T10:28:28;98136.47;;;9.75;64.57
58373;BME280;44177;43.356;27.672;2023-02-19T10:31:00;98137.38;;;9.79;64.45
58373;BME280;44177;43.356;27.672;2023-02-19T10:33:26;98137.38;;;9.79;64.70
58373;BME280;44177;43.356;27.672;2023-02-19T10:36:06;98127.28;;;9.79;64.62
58373;BME280;44177;43.356;27.672;2023-02-19T10:38:39;98129.53;;;9.77;64.62
58373;BME280;44177;43.356;27.672;2023-02-19T10:41:15;98117.06;;;9.76;64.93
58373;BME280;44177;43.356;27.672;2023-02-19T10:46:43;98101.41;;;9.73;64.88
58373;BME280;44177;43.356;27.672;2023-02-19T10:51:58;98099.47;;;9.74;65.34
58373;BME280;44177;43.356;27.672;2023-02-19T10:54:28;98104.03;;;9.70;65.25
58373;BME280;44177;43.356;27.672;2023-02-19T11:02:19;98082.34;;;9.73;65.28
58373;BME280;44177;43.356;27.672;2023-02-19T11:07:29;98077.31;;;9.75;65.35
58373;BME280;44177;43.356;27.672;2023-02-19T11:09:56;98064.31;;;9.69;65.49
58373;BME280;44177;43.356;27.672;2023-02-19T11:12:26;98077.31;;;9.75;65.42
58373;BME280;44177;43.356;27.672;2023-02-19T11:14:53;98076.53;;;9.75;65.27
58373;BME280;44177;43.356;27.672;2023-02-19T11:17:23;98077.31;;;9.75;65.43
58373;BME280;44177;43.356;27.672;2023-02-19T11:19:54;98065.78;;;9.66;65.33
58373;BME280;44177;43.356;27.672;2023-02-19T11:22:36;98085.06;;;9.73;65.68
58373;BME280;44177;43.356;27.672;2023-02-19T11:25:18;98079.63;;;9.73;65.61
58373;BME280;44177;43.356;27.672;2023-02-19T11:27:59;98088.56;;;9.74;65.47
58373;BME280;44177;43.356;27.672;2023-02-19T11:32:54;98083.47;;;9.72;65.54
58373;BME280;44177;43.356;27.672;2023-02-19T11:35:22;98080.75;;;9.72;65.72
58373;BME280;44177;43.356;27.672;2023-02-19T11:37:57;98077.22;;;9.72;65.72
58373;BME280;44177;43.356;27.672;2023-02-19T11:43:09;98075.63;;;9.71;65.66
58373;BME280;44177;43.356;27.672;2023-02-19T11:56:48;98047.59;;;9.70;66.16
58373;BME280;44177;43.356;27.672;2023-02-19T11:59:29;98050.69;;;9.69;66.09
58373;BME280;44177;43.356;27.672;2023-02-19T12:10:18;98053.06;;;9.70;66.04
58373;BME280;44177;43.356;27.672;2023-02-19T12:18:13;98030.91;;;9.72;66.47
58373;BME280;44177;43.356;27.672;2023-02-19T12:23:53;98021.16;;;9.71;66.20
58373;BME280;44177;43.356;27.672;2023-02-19T12:26:29;98031.25;;;9.70;66.22
58373;BME280;44177;43.356;27.672;2023-02-19T12:42:37;98011.75;;;9.68;66.36
58373;BME280;44177;43.356;27.672;2023-02-19T12:45:13;98011.75;;;9.68;66.27
58373;BME280;44177;43.356;27.672;2023-02-19T12:47:41;98010.16;;;9.67;66.30
58373;BME280;44177;43.356;27.672;2023-02-19T12:50:21;98001.00;;;9.59;66.59
58373;BME280;44177;43.356;27.672;2023-02-19T12:55:58;97998.84;;;9.65;66.62
58373;BME280;44177;43.356;27.672;2023-02-19T12:58:30;98002.22;;;9.62;66.38
58373;BME280;44177;43.356;27.672;2023-02-19T13:00:59;97996.88;;;9.66;66.71
58373;BME280;44177;43.356;27.672;2023-02-19T13:03:32;97990.66;;;9.65;66.50
58373;BME280;44177;43.356;27.672;2023-02-19T13:06:25;97989.84;;;9.64;66.63
58373;BME280;44177;43.356;27.672;2023-02-19T13:09:05;97995.66;;;9.63;66.58
58373;BME280;44177;43.356;27.672;2023-02-19T13:11:42;97978.84;;;9.61;66.75
58373;BME280;44177;43.356;27.672;2023-02-19T13:16:48;97992.94;;;9.63;66.57
58373;BME280;44177;43.356;27.672;2023-02-19T13:19:15;97982.03;;;9.63;66.73
58373;BME280;44177;43.356;27.672;2023-02-19T13:21:41;97987.47;;;9.63;66.68
58373;BME280;44177;43.356;27.672;2023-02-19T13:24:33;97985.88;;;9.62;66.84
58373;BME280;44177;43.356;27.672;2023-02-19T13:27:46;97983.63;;;9.64;66.78
58373;BME280;44177;43.356;27.672;2023-02-19T13:30:29;97983.97;;;9.62;66.76
58373;BME280;44177;43.356;27.672;2023-02-19T13:33:14;97980.44;;;9.62;66.74
58373;BME280;44177;43.356;27.672;2023-02-19T13:38:32;97980.44;;;9.62;66.73
58373;BME280;44177;43.356;27.672;2023-02-19T13:41:01;97975.34;;;9.60;66.86
58373;BME280;44177;43.356;27.672;2023-02-19T13:43:34;97974.22;;;9.61;66.86
58373;BME280;44177;43.356;27.672;2023-02-19T13:46:05;97971.81;;;9.60;67.04
58373;BME280;44177;43.356;27.672;2023-02-19T13:48:35;97978.84;;;9.61;67.09
58373;BME280;44177;43.356;27.672;2023-02-19T14:14:40;97952.44;;;9.61;67.30
58373;BME280;44177;43.356;27.672;2023-02-19T14:19:49;97949.34;;;9.63;67.23
58373;BME280;44177;43.356;27.672;2023-02-19T14:33:10;97954.44;;;9.64;67.16
58373;BME280;44177;43.356;27.672;2023-02-19T14:35:42;97949.81;;;9.65;67.35
58373;BME280;44177;43.356;27.672;2023-02-19T14:38:21;97957.16;;;9.64;67.40
58373;BME280;44177;43.356;27.672;2023-02-19T14:40:49;97954.13;;;9.66;67.12
58373;BME280;44177;43.356;27.672;2023-02-19T14:43:18;97949.44;;;9.67;67.37
58373;BME280;44177;43.356;27.672;2023-02-19T14:45:55;97947.09;;;9.65;67.22
58373;BME280;44177;43.356;27.672;2023-02-19T14:48:25;97945.13;;;9.66;67.02
58373;BME280;44177;43.356;27.672;2023-02-19T14:50:59;97947.09;;;9.65;67.31
58373;BME280;44177;43.356;27.672;2023-02-19T14:53:27;97942.56;;;9.57;67.39
58373;BME280;44177;43.356;27.672;2023-02-19T14:55:54;97954.44;;;9.64;67.13
58373;BME280;44177;43.356;27.672;2023-02-19T14:58:28;97949.25;;;9.59;67.35
58373;BME280;44177;43.356;27.672;2023-02-19T15:00:56;97946.78;;;9.54;67.16
58373;BME280;44177;43.356;27.672;2023-02-19T15:03:30;97959.13;;;9.64;67.15
58373;BME280;44177;43.356;27.672;2023-02-19T15:06:10;97938.63;;;9.54;67.34
58373;BME280;44177;43.356;27.672;2023-02-19T15:08:42;97957.53;;;9.63;67.62
58373;BME280;44177;43.356;27.672;2023-02-19T15:11:19;97964.91;;;9.62;67.40
58373;BME280;44177;43.356;27.672;2023-02-19T15:13:50;97960.25;;;9.63;67.47
58373;BME280;44177;43.356;27.672;2023-02-19T15:16:21;97957.88;;;9.61;67.48
58373;BME280;44177;43.356;27.672;2023-02-19T15:18:48;97972.63;;;9.60;67.59
58373;BME280;44177;43.356;27.672;2023-02-19T15:23:49;97971.03;;;9.59;67.76
58373;BME280;44177;43.356;27.672;2023-02-19T15:26:21;97974.13;;;9.58;67.44
58373;BME280;44177;43.356;27.672;2023-02-19T15:28:59;97974.91;;;9.58;67.57
58373;BME280;44177;43.356;27.672;2023-02-19T15:31:25;97963.22;;;9.58;67.76
58373;BME280;44177;43.356;27.672;2023-02-19T15:33:52;97966.72;;;9.58;67.63
58373;BME280;44177;43.356;27.672;2023-02-19T15:36:29;97964.78;;;9.59;67.80